Time;durP1;ratioP1;P1;durP2;ratioP2;P2;SDS_P1;SDS_P2;PMS_P1;PMS_P2;Temp;Humidity;BMP_temperature;BMP_pressure;BME280_temperature;BME280_humidity;BME280_pressure;Samples;Min_cycle;Max_cycle;Signal;HPM_P1;HPM_P2
2022/06/24 00:01:57;;;;;;;2.97;1.95;;;20.60;86.80;;;;;;4997815;28;20053;-69
2022/06/24 00:04:25;;;;;;;4.80;1.77;;;20.60;87.80;;;;;;5015212;28;20462;-69
2022/06/24 00:06:51;;;;;;;4.65;1.92;;;20.50;87.50;;;;;;5015497;28;20119;-69
2022/06/24 00:09:18;;;;;;;4.07;1.80;;;20.40;87.70;;;;;;5015500;28;20049;-69
2022/06/24 00:11:44;;;;;;;4.20;2.05;;;20.40;87.90;;;;;;4998058;28;20054;-69
2022/06/24 00:14:17;;;;;;;2.25;1.30;;;20.40;87.80;;;;;;5015514;28;20049;-69
2022/06/24 00:17:00;;;;;;;3.38;1.92;;;20.30;88.70;;;;;;5009107;28;20046;-69
2022/06/24 00:19:28;;;;;;;3.60;2.33;;;20.20;89.30;;;;;;4998027;28;20462;-69
2022/06/24 00:22:03;;;;;;;3.08;1.98;;;20.10;90.00;;;;;;5015247;28;20728;-69
2022/06/24 00:24:30;;;;;;;3.25;1.77;;;20.00;89.80;;;;;;4998223;28;20064;-69
2022/06/24 00:26:57;;;;;;;3.97;2.05;;;20.00;90.30;;;;;;5014996;28;20060;-69
2022/06/24 00:29:29;;;;;;;2.83;1.83;;;19.90;90.20;;;;;;5015039;28;20121;-69
2022/06/24 00:32:03;;;;;;;2.53;1.77;;;19.90;90.00;;;;;;4994709;28;20116;-69
2022/06/24 00:34:29;;;;;;;2.95;1.83;;;19.90;90.40;;;;;;4998202;28;20053;-69
2022/06/24 00:36:55;;;;;;;4.57;1.80;;;19.80;90.60;;;;;;5015107;28;20056;-69
2022/06/24 00:39:30;;;;;;;3.38;2.00;;;19.70;90.90;;;;;;4998007;28;20450;-69
2022/06/24 00:41:57;;;;;;;4.03;2.10;;;19.70;90.80;;;;;;4997712;28;20045;-69
2022/06/24 00:44:24;;;;;;;2.70;1.80;;;19.60;90.70;;;;;;5014632;28;20049;-69
2022/06/24 00:46:52;;;;;;;3.50;1.90;;;19.50;90.60;;;;;;5014043;28;20050;-69
2022/06/24 00:49:25;;;;;;;3.83;2.10;;;19.50;91.20;;;;;;5014906;28;20058;-69
2022/06/24 00:51:51;;;;;;;4.35;1.73;;;19.60;91.10;;;;;;5014791;28;20046;-69
2022/06/24 00:54:18;;;;;;;3.05;1.98;;;19.60;90.90;;;;;;5001589;28;20052;-69
2022/06/24 00:56:45;;;;;;;3.85;1.90;;;19.50;90.90;;;;;;4997227;28;20053;-69
2022/06/24 00:59:11;;;;;;;2.90;2.00;;;19.50;91.10;;;;;;5001506;28;20374;-69
2022/06/24 01:01:38;;;;;;;3.67;1.95;;;19.40;91.40;;;;;;5001806;28;20049;-69
2022/06/24 01:04:07;;;;;;;3.17;2.00;;;19.30;91.40;;;;;;5018564;28;20081;-69
2022/06/24 01:06:34;;;;;;;2.60;1.90;;;19.20;91.60;;;;;;5018495;28;20049;-69
2022/06/24 01:09:00;;;;;;;3.45;2.35;;;19.20;92.10;;;;;;5001574;28;20049;-68
2022/06/24 01:11:28;;;;;;;4.05;2.00;;;19.10;92.00;;;;;;5002144;28;20056;-69
2022/06/24 01:13:54;;;;;;;3.10;1.98;;;19.00;92.20;;;;;;5001037;28;20050;-69
2022/06/24 01:16:21;;;;;;;3.58;2.22;;;19.10;92.30;;;;;;5000982;28;20067;-69
2022/06/24 01:18:53;;;;;;;3.83;2.22;;;19.00;92.40;;;;;;5001151;28;20042;-69
2022/06/24 01:21:35;;;;;;;4.90;1.80;;;18.90;92.60;;;;;;5000531;28;20049;-69
2022/06/24 01:24:10;;;;;;;5.13;1.88;;;18.80;93.00;;;;;;5001003;28;20061;-69
2022/06/24 01:26:36;;;;;;;3.13;2.08;;;18.80;93.00;;;;;;5018454;28;20054;-69
2022/06/24 01:29:02;;;;;;;4.20;2.00;;;18.80;93.00;;;;;;5001132;28;20064;-69
2022/06/24 01:31:28;;;;;;;3.53;1.83;;;18.80;93.20;;;;;;5001486;28;20046;-69
2022/06/24 01:33:54;;;;;;;3.22;1.95;;;18.70;93.30;;;;;;5017901;28;20050;-69
2022/06/24 01:36:20;;;;;;;3.55;2.10;;;18.60;93.60;;;;;;5016844;28;20082;-69
2022/06/24 01:38:45;;;;;;;3.20;2.05;;;18.60;93.60;;;;;;5000317;28;20124;-69
2022/06/24 01:41:11;;;;;;;4.53;1.95;;;18.60;94.00;;;;;;5017838;28;20049;-69
2022/06/24 01:43:36;;;;;;;3.10;2.15;;;18.60;93.90;;;;;;5000959;28;20403;-69
2022/06/24 01:46:02;;;;;;;4.95;2.60;;;18.50;94.40;;;;;;5017545;28;20057;-68
2022/06/24 01:48:28;;;;;;;4.03;2.05;;;18.50;94.40;;;;;;5017902;28;20041;-69
2022/06/24 01:50:54;;;;;;;3.65;2.45;;;18.40;95.00;;;;;;4999818;28;20426;-69
2022/06/24 01:53:20;;;;;;;4.25;2.10;;;18.40;95.20;;;;;;5017818;28;20045;-69
2022/06/24 01:55:46;;;;;;;3.30;2.00;;;18.40;95.40;;;;;;5001641;28;20439;-69
2022/06/24 01:58:12;;;;;;;5.63;2.00;;;18.40;95.80;;;;;;5000356;28;20046;-69
2022/06/24 02:00:37;;;;;;;4.05;2.40;;;18.30;95.70;;;;;;5000480;28;20100;-69
2022/06/24 02:03:07;;;;;;;6.80;1.90;;;18.30;96.20;;;;;;5000563;28;20151;-69
2022/06/24 02:05:32;;;;;;;2.90;1.98;;;18.20;96.60;;;;;;4999227;28;20057;-69
2022/06/24 02:07:58;;;;;;;4.10;2.30;;;18.20;96.00;;;;;;5000445;28;20358;-69
2022/06/24 02:13:29;;;;;;;3.53;1.90;;;18.20;96.70;;;;;;5000522;28;20133;-69
2022/06/24 02:16:01;;;;;;;2.67;2.03;;;18.00;96.60;;;;;;5000174;28;20046;-69
2022/06/24 02:18:28;;;;;;;3.67;2.00;;;18.10;97.00;;;;;;5000309;28;20061;-69
2022/06/24 02:20:54;;;;;;;4.22;2.33;;;18.10;97.40;;;;;;5016716;28;20081;-69
2022/06/24 02:23:20;;;;;;;6.38;2.55;;;18.00;97.50;;;;;;4999650;28;20056;-69
2022/06/24 02:25:46;;;;;;;4.18;2.25;;;18.00;97.70;;;;;;5000766;28;20049;-69
2022/06/24 02:28:12;;;;;;;3.75;2.38;;;18.00;97.80;;;;;;5016359;28;20042;-69
2022/06/24 02:30:39;;;;;;;5.82;2.42;;;18.00;98.70;;;;;;4999661;28;20336;-69
2022/06/24 02:33:05;;;;;;;3.28;2.28;;;17.90;98.30;;;;;;5017122;28;20046;-69
2022/06/24 02:35:31;;;;;;;3.10;2.00;;;18.00;98.40;;;;;;4999989;28;20486;-69
2022/06/24 02:37:57;;;;;;;7.45;2.80;;;18.00;98.60;;;;;;4999862;28;20049;-69
2022/06/24 02:43:18;;;;;;;4.43;2.40;;;17.90;99.90;;;;;;5016264;28;20363;-69
2022/06/24 02:45:45;;;;;;;6.20;2.72;;;17.80;99.70;;;;;;5000033;28;20358;-68
2022/06/24 02:48:12;;;;;;;3.75;2.28;;;17.80;99.90;;;;;;5016671;28;20394;-69
2022/06/24 02:50:39;;;;;;;3.42;2.00;;;17.80;99.90;;;;;;5017358;28;20058;-69
2022/06/24 02:53:05;;;;;;;7.72;2.42;;;17.80;99.90;;;;;;5017174;28;20359;-69
2022/06/24 02:55:31;;;;;;;4.43;2.50;;;17.80;99.90;;;;;;4999101;28;20057;-69
2022/06/24 02:57:56;;;;;;;5.53;2.13;;;17.80;99.90;;;;;;5014509;28;20038;-69
2022/06/24 03:00:22;;;;;;;3.72;2.45;;;17.90;99.90;;;;;;5015645;28;20100;-68
2022/06/24 03:02:47;;;;;;;4.55;2.28;;;17.80;99.90;;;;;;4998933;28;20049;-69
2022/06/24 03:05:13;;;;;;;5.45;2.80;;;17.80;99.90;;;;;;4998997;28;20056;-69
2022/06/24 03:07:38;;;;;;;4.80;2.45;;;17.80;99.90;;;;;;5016239;28;20053;-69
2022/06/24 03:10:04;;;;;;;4.25;2.80;;;17.80;99.90;;;;;;5016911;28;20037;-69
2022/06/24 03:12:30;;;;;;;7.20;2.50;;;17.90;99.90;;;;;;4999070;28;20054;-69
2022/06/24 03:14:56;;;;;;;4.53;2.83;;;18.00;99.90;;;;;;4997840;28;20056;-69
2022/06/24 03:17:21;;;;;;;4.35;2.00;;;18.10;99.90;;;;;;5016338;28;20041;-69
2022/06/24 03:19:47;;;;;;;8.55;2.60;;;18.10;99.90;;;;;;5016927;28;20143;-69
2022/06/24 03:22:12;;;;;;;5.00;2.50;;;18.20;99.90;;;;;;4998440;28;20064;-69
2022/06/24 03:24:38;;;;;;;7.25;2.22;;;18.30;99.90;;;;;;5015850;28;20034;-69
2022/06/24 03:27:04;;;;;;;6.68;2.97;;;18.50;99.90;;;;;;4998348;28;20124;-69
2022/06/24 03:29:31;;;;;;;4.85;2.25;;;18.40;99.70;;;;;;4998349;28;20057;-69
2022/06/24 03:31:57;;;;;;;4.22;2.53;;;18.60;99.70;;;;;;5016166;28;20053;-69
2022/06/24 03:34:23;;;;;;;6.75;3.15;;;18.60;99.60;;;;;;5016007;28;20390;-69
2022/06/24 03:36:49;;;;;;;5.80;2.50;;;18.70;99.10;;;;;;4998601;28;20435;-69
2022/06/24 03:39:15;;;;;;;4.00;2.78;;;18.70;99.60;;;;;;5015520;28;20085;-69
2022/06/24 03:41:40;;;;;;;5.05;2.47;;;18.80;98.80;;;;;;4998770;28;20092;-69
2022/06/24 03:44:06;;;;;;;5.22;2.60;;;18.80;98.60;;;;;;4998582;28;20042;-69
2022/06/24 03:46:32;;;;;;;6.60;2.65;;;18.90;98.50;;;;;;4998673;28;20041;-69
2022/06/24 03:48:57;;;;;;;3.55;2.25;;;18.90;97.80;;;;;;5015628;28;20050;-69
2022/06/24 03:51:23;;;;;;;4.45;2.88;;;19.00;97.00;;;;;;5015766;28;20061;-69
2022/06/24 03:53:48;;;;;;;4.38;2.83;;;18.90;97.00;;;;;;5015421;28;20046;-69
2022/06/24 03:56:14;;;;;;;6.35;2.97;;;19.10;96.80;;;;;;4998646;28;20050;-69
2022/06/24 03:58:39;;;;;;;5.38;2.58;;;19.10;96.80;;;;;;4998123;28;20374;-69
2022/06/24 04:01:05;;;;;;;4.47;2.65;;;19.20;96.70;;;;;;4997913;28;20196;-69
2022/06/24 04:03:31;;;;;;;6.30;2.60;;;19.10;96.70;;;;;;4998688;28;20578;-69
2022/06/24 04:05:56;;;;;;;7.43;2.85;;;19.20;96.80;;;;;;4999138;28;20472;-69
2022/06/24 04:08:22;;;;;;;5.60;2.75;;;19.30;96.40;;;;;;4997871;28;20053;-69
2022/06/24 04:10:47;;;;;;;4.40;2.42;;;19.30;96.20;;;;;;4997745;28;20042;-69
2022/06/24 04:13:13;;;;;;;4.45;2.60;;;19.40;95.60;;;;;;5014767;28;20050;-69
2022/06/24 04:15:46;;;;;;;4.70;2.55;;;19.40;95.80;;;;;;4998000;28;20053;-69
2022/06/24 04:18:12;;;;;;;3.38;2.05;;;19.50;95.70;;;;;;4998355;28;20429;-69
2022/06/24 04:20:38;;;;;;;5.38;2.85;;;19.50;95.60;;;;;;5015091;28;20120;-69
2022/06/24 04:23:04;;;;;;;6.28;2.75;;;19.50;95.50;;;;;;5015427;28;20073;-69
2022/06/24 04:25:30;;;;;;;5.00;2.65;;;19.50;95.80;;;;;;5015724;28;20052;-69
2022/06/24 04:27:56;;;;;;;6.10;2.75;;;19.60;95.60;;;;;;4997084;28;20072;-70
2022/06/24 04:30:21;;;;;;;4.60;3.00;;;19.70;95.60;;;;;;4998217;28;20049;-70
2022/06/24 04:32:47;;;;;;;4.75;2.60;;;19.80;95.50;;;;;;5010036;28;20057;-70
2022/06/24 04:35:13;;;;;;;4.35;2.60;;;19.90;95.40;;;;;;4997202;28;20075;-70
2022/06/24 04:37:39;;;;;;;5.97;2.95;;;19.90;95.90;;;;;;4997798;28;20120;-70
2022/06/24 04:40:11;;;;;;;5.68;2.60;;;20.00;96.20;;;;;;5014972;28;20038;-70
2022/06/24 04:42:37;;;;;;;5.93;3.30;;;20.20;96.20;;;;;;5015354;28;20395;-70
2022/06/24 04:45:04;;;;;;;3.17;2.33;;;20.20;95.90;;;;;;5009794;28;20092;-70
2022/06/24 04:47:30;;;;;;;3.53;2.55;;;20.30;96.00;;;;;;5017941;28;20401;-70
2022/06/24 04:49:55;;;;;;;5.35;2.40;;;20.50;96.60;;;;;;5028272;28;20054;-69
2022/06/24 04:52:21;;;;;;;4.38;2.40;;;20.80;96.40;;;;;;4992518;28;20474;-69
2022/06/24 04:54:50;;;;;;;16.05;2.50;;;20.80;95.90;;;;;;5007412;28;20120;-71
2022/06/24 04:57:16;;;;;;;5.03;2.67;;;20.80;95.60;;;;;;5013367;28;20363;-69
2022/06/24 04:59:42;;;;;;;5.53;2.65;;;20.80;96.30;;;;;;5001498;28;20042;-69
2022/06/24 05:02:08;;;;;;;6.07;2.58;;;20.90;96.20;;;;;;5017070;28;20045;-68
2022/06/24 05:04:35;;;;;;;4.38;2.78;;;20.90;96.60;;;;;;5016723;28;20055;-68
2022/06/24 05:07:01;;;;;;;3.88;2.58;;;20.90;97.20;;;;;;5034527;28;20038;-68
2022/06/24 05:09:27;;;;;;;5.68;2.60;;;21.00;96.90;;;;;;5017711;28;20042;-69
2022/06/24 05:11:53;;;;;;;4.22;2.50;;;21.00;96.70;;;;;;5001758;28;20060;-68
2022/06/24 05:14:19;;;;;;;5.63;2.15;;;21.00;97.00;;;;;;5014930;28;20474;-69
2022/06/24 05:16:44;;;;;;;4.53;2.47;;;21.20;98.00;;;;;;5014903;28;20034;-69
2022/06/24 05:19:10;;;;;;;8.25;3.08;;;21.90;98.00;;;;;;4997384;28;20054;-69
2022/06/24 05:21:36;;;;;;;4.22;2.65;;;22.80;96.50;;;;;;4997349;28;20494;-69
2022/06/24 05:24:02;;;;;;;3.85;2.75;;;23.70;95.70;;;;;;5014379;28;20125;-69
2022/06/24 05:26:28;;;;;;;3.55;2.60;;;24.40;94.00;;;;;;5013655;28;20056;-70
2022/06/24 05:28:53;;;;;;;5.03;2.60;;;25.10;93.60;;;;;;4992117;28;20030;-69
2022/06/24 05:31:19;;;;;;;5.95;2.22;;;25.60;92.50;;;;;;5013758;28;20038;-69
2022/06/24 05:33:45;;;;;;;10.93;2.10;;;25.90;91.80;;;;;;5014514;28;20125;-68
2022/06/24 05:36:10;;;;;;;3.50;2.15;;;26.50;91.70;;;;;;4996811;28;20042;-67
2022/06/24 05:38:36;;;;;;;4.15;2.47;;;27.10;91.20;;;;;;5020800;28;20057;-68
2022/06/24 05:41:03;;;;;;;3.10;2.05;;;27.60;90.30;;;;;;5020374;28;20057;-68
2022/06/24 05:43:29;;;;;;;5.00;2.45;;;27.50;90.10;;;;;;4998872;28;20050;-71
2022/06/24 05:45:55;;;;;;;3.90;2.25;;;27.10;90.10;;;;;;5000305;28;20054;-68
2022/06/24 05:48:21;;;;;;;5.10;3.00;;;26.30;90.20;;;;;;5017365;28;20033;-69
2022/06/24 05:50:46;;;;;;;4.10;2.30;;;25.70;90.50;;;;;;5017432;28;20479;-69
2022/06/24 05:55:58;;;;;;;7.30;3.03;;;24.60;92.10;;;;;;4998787;28;20462;-69
2022/06/24 05:58:27;;;;;;;9.05;3.33;;;24.10;92.80;;;;;;5017164;28;20125;-70
2022/06/24 06:00:57;;;;;;;4.45;2.83;;;23.60;93.50;;;;;;5016999;28;20147;-70
2022/06/24 06:03:26;;;;;;;5.78;3.08;;;23.30;94.00;;;;;;4999710;28;20447;-69
2022/06/24 06:05:52;;;;;;;7.00;3.75;;;23.00;94.90;;;;;;5016906;28;20108;-71
2022/06/24 06:08:18;;;;;;;24.92;8.13;;;22.70;95.30;;;;;;4999544;28;20054;-71
2022/06/24 06:10:44;;;;;;;20.00;7.35;;;22.30;99.90;;;;;;5015550;28;20057;-70
2022/06/24 06:13:13;;;;;;;21.40;6.00;;;21.90;99.90;;;;;;5005647;28;20058;-69
2022/06/24 06:15:41;;;;;;;12.40;5.32;;;21.40;99.90;;;;;;5016438;28;20042;-70
2022/06/24 06:18:07;;;;;;;12.48;5.75;;;21.00;99.90;;;;;;5016536;28;20459;-69
2022/06/24 06:20:32;;;;;;;12.50;5.97;;;20.60;99.90;;;;;;4999464;28;20064;-68
2022/06/24 06:22:58;;;;;;;13.40;6.20;;;20.40;99.90;;;;;;5016107;28;20054;-71
2022/06/24 06:25:24;;;;;;;11.10;6.38;;;20.30;99.90;;;;;;4999050;28;20054;-68
2022/06/24 06:27:50;;;;;;;8.90;5.85;;;20.30;99.90;;;;;;5016305;28;20429;-69
2022/06/24 06:30:17;;;;;;;12.50;5.78;;;20.20;99.90;;;;;;4999050;28;20056;-69
2022/06/24 06:32:42;;;;;;;9.60;6.30;;;20.30;99.90;;;;;;4999477;28;20339;-69
2022/06/24 06:35:08;;;;;;;12.00;6.38;;;20.40;99.90;;;;;;4999513;28;20037;-70
2022/06/24 06:37:34;;;;;;;11.95;7.15;;;20.50;99.90;;;;;;4999019;28;20413;-70
2022/06/24 06:40:00;;;;;;;10.35;6.43;;;20.70;99.90;;;;;;4998247;28;20057;-69
2022/06/24 06:42:26;;;;;;;11.50;6.07;;;20.80;99.90;;;;;;4999390;28;20042;-69
2022/06/24 06:44:52;;;;;;;12.52;7.05;;;20.80;99.90;;;;;;4999370;28;20077;-69
2022/06/24 06:47:17;;;;;;;11.88;6.53;;;20.80;99.90;;;;;;5016053;28;20135;-69
2022/06/24 06:49:44;;;;;;;13.02;7.07;;;20.90;99.90;;;;;;5015488;28;20049;-68
2022/06/24 06:52:09;;;;;;;11.07;6.82;;;20.90;99.90;;;;;;5015671;28;20173;-71
2022/06/24 06:54:35;;;;;;;9.82;6.97;;;21.00;99.90;;;;;;5015746;28;20073;-69
2022/06/24 06:57:00;;;;;;;11.63;7.53;;;20.90;99.90;;;;;;4998786;28;20056;-69
2022/06/24 06:59:26;;;;;;;13.90;6.25;;;20.80;99.90;;;;;;5017810;28;20124;-69
2022/06/24 07:01:52;;;;;;;14.90;8.32;;;20.70;99.90;;;;;;5018165;28;20045;-70
2022/06/24 07:04:17;;;;;;;10.68;6.07;;;20.80;99.90;;;;;;5018156;28;20386;-70
2022/06/24 07:06:43;;;;;;;15.25;6.43;;;20.80;99.90;;;;;;5018785;28;20045;-71
2022/06/24 07:09:10;;;;;;;13.13;5.97;;;20.80;99.90;;;;;;5014478;28;20042;-70
2022/06/24 07:11:36;;;;;;;15.40;6.80;;;20.90;99.90;;;;;;5015564;28;20068;-71
2022/06/24 07:14:01;;;;;;;13.00;6.00;;;20.90;99.90;;;;;;4998553;28;20042;-69
2022/06/24 07:16:27;;;;;;;9.13;4.90;;;20.90;99.90;;;;;;4998765;28;20107;-69
2022/06/24 07:18:52;;;;;;;7.07;4.47;;;20.80;99.90;;;;;;4998415;28;20125;-69
2022/06/24 07:21:18;;;;;;;8.10;4.85;;;20.90;99.90;;;;;;5015859;28;20125;-69
2022/06/24 07:23:44;;;;;;;7.55;4.80;;;20.80;99.90;;;;;;5015464;28;20052;-69
2022/06/24 07:26:10;;;;;;;11.45;4.57;;;20.80;99.90;;;;;;5014874;28;20053;-69
2022/06/24 07:28:36;;;;;;;11.13;5.32;;;20.90;99.90;;;;;;4997764;28;20495;-68
2022/06/24 07:31:13;;;;;;;12.32;4.72;;;20.90;99.90;;;;;;4998351;28;20050;-68
2022/06/24 07:33:38;;;;;;;16.80;4.93;;;20.90;99.90;;;;;;4998553;28;20095;-68
2022/06/24 07:36:04;;;;;;;10.23;5.65;;;20.90;99.90;;;;;;5015689;28;20370;-69
2022/06/24 07:38:29;;;;;;;6.93;4.30;;;20.90;99.90;;;;;;5015289;28;20613;-68
2022/06/24 07:40:55;;;;;;;9.98;5.18;;;21.00;99.90;;;;;;4997109;28;20382;-69
2022/06/24 07:43:21;;;;;;;6.50;4.18;;;21.10;99.90;;;;;;4998221;28;20450;-69
2022/06/24 07:45:47;;;;;;;11.68;5.18;;;21.10;99.90;;;;;;4998644;28;20046;-71
2022/06/24 07:48:12;;;;;;;9.55;4.35;;;21.10;99.90;;;;;;4998614;28;20408;-72
2022/06/24 07:50:38;;;;;;;6.82;3.33;;;21.00;99.90;;;;;;4997415;28;20064;-72
2022/06/24 07:53:04;;;;;;;9.02;4.30;;;20.90;99.90;;;;;;4998571;28;20089;-69
2022/06/24 07:58:13;;;;;;;7.03;3.63;;;21.00;99.90;;;;;;5015196;28;20049;-69
2022/06/24 08:00:40;;;;;;;7.18;3.25;;;21.10;99.90;;;;;;4997906;28;20050;-70
2022/06/24 08:03:06;;;;;;;6.63;3.90;;;21.00;99.90;;;;;;4996762;28;20037;-70
2022/06/24 08:05:32;;;;;;;7.72;3.75;;;21.00;99.90;;;;;;4997784;28;20116;-70
2022/06/24 08:07:57;;;;;;;6.30;3.55;;;21.10;99.90;;;;;;5015077;28;20056;-72
2022/06/24 08:10:23;;;;;;;7.40;3.80;;;21.10;99.90;;;;;;5014399;28;20366;-71
2022/06/24 08:12:49;;;;;;;6.57;3.80;;;21.20;99.90;;;;;;5015265;28;20245;-70
2022/06/24 08:15:16;;;;;;;9.98;4.15;;;21.40;99.90;;;;;;5015057;28;20354;-70
2022/06/24 08:17:42;;;;;;;6.22;3.30;;;21.40;99.90;;;;;;5015166;28;20324;-69
2022/06/24 08:20:08;;;;;;;5.68;3.53;;;21.50;99.90;;;;;;4997576;28;20123;-69
2022/06/24 08:22:34;;;;;;;7.20;2.95;;;21.60;99.90;;;;;;4997750;28;20081;-72
2022/06/24 08:25:01;;;;;;;6.55;2.92;;;21.70;99.90;;;;;;5014490;28;20085;-71
2022/06/24 08:27:26;;;;;;;6.05;3.22;;;21.70;99.90;;;;;;4997877;28;20061;-71
2022/06/24 08:29:52;;;;;;;5.40;2.47;;;21.70;99.90;;;;;;5014467;28;20045;-71
2022/06/24 08:32:18;;;;;;;4.72;2.75;;;21.70;99.90;;;;;;5013964;28;20041;-71
2022/06/24 08:34:43;;;;;;;6.30;2.92;;;21.90;99.90;;;;;;4997219;28;20058;-71
2022/06/24 08:37:09;;;;;;;4.40;3.00;;;21.90;99.90;;;;;;4997380;28;20064;-71
2022/06/24 08:39:35;;;;;;;5.47;2.05;;;22.10;99.90;;;;;;5014300;28;20462;-71
2022/06/24 08:42:03;;;;;;;6.55;2.58;;;22.30;99.90;;;;;;4996106;28;20132;-71
2022/06/24 08:44:28;;;;;;;4.20;2.42;;;22.60;99.90;;;;;;5001567;28;20487;-70
2022/06/24 08:46:54;;;;;;;6.13;2.45;;;22.90;99.90;;;;;;4978164;28;20085;-70
2022/06/24 08:49:20;;;;;;;5.05;2.70;;;23.10;99.90;;;;;;4994183;28;20397;-70
2022/06/24 08:51:47;;;;;;;5.78;2.78;;;23.10;99.90;;;;;;4997456;28;20125;-70
2022/06/24 08:54:16;;;;;;;5.70;2.50;;;23.20;99.90;;;;;;4996989;28;20045;-70
2022/06/24 08:56:42;;;;;;;4.28;2.60;;;23.20;99.90;;;;;;4996996;28;20104;-70
2022/06/24 08:59:07;;;;;;;4.85;2.47;;;23.10;99.90;;;;;;4997141;28;20085;-70
2022/06/24 09:01:39;;;;;;;5.03;2.90;;;23.00;99.90;;;;;;5015014;28;20549;-69
2022/06/24 09:04:04;;;;;;;3.97;2.30;;;22.90;99.90;;;;;;4991124;28;20046;-69
2022/06/24 09:06:40;;;;;;;6.90;2.90;;;22.90;99.90;;;;;;4989715;28;20477;-70
2022/06/24 09:09:06;;;;;;;5.57;2.58;;;22.80;99.90;;;;;;4994758;28;20367;-70
2022/06/24 09:11:40;;;;;;;5.15;2.35;;;22.70;99.90;;;;;;4996878;28;20081;-70
2022/06/24 09:14:06;;;;;;;4.03;2.33;;;22.70;99.90;;;;;;5016294;28;20410;-70
2022/06/24 09:16:36;;;;;;;6.05;2.65;;;22.80;99.90;;;;;;5000392;28;20452;-69
2022/06/24 09:19:04;;;;;;;5.13;2.67;;;22.80;99.90;;;;;;5001111;28;20501;-69
2022/06/24 09:21:36;;;;;;;8.38;2.35;;;22.80;99.90;;;;;;5000665;28;20086;-69
2022/06/24 09:24:03;;;;;;;9.52;2.50;;;22.60;99.90;;;;;;5019260;28;20034;-70
2022/06/24 09:26:37;;;;;;;4.68;2.35;;;22.80;99.90;;;;;;5017723;28;20057;-69
2022/06/24 09:29:09;;;;;;;4.32;2.28;;;22.80;99.90;;;;;;5000777;28;20080;-69
2022/06/24 09:31:36;;;;;;;5.35;2.58;;;22.70;99.90;;;;;;5000325;28;20073;-71
2022/06/24 09:34:06;;;;;;;6.10;2.33;;;22.60;99.90;;;;;;5015123;28;20049;-69
2022/06/24 09:36:33;;;;;;;3.53;2.22;;;22.50;99.90;;;;;;5000693;28;20535;-71
2022/06/24 09:39:05;;;;;;;6.25;2.75;;;22.40;99.90;;;;;;5017547;28;20455;-69
2022/06/24 09:41:48;;;;;;;4.80;2.38;;;22.30;99.90;;;;;;5017732;28;20188;-71
2022/06/24 09:44:15;;;;;;;3.78;1.98;;;22.20;99.90;;;;;;5000358;28;20038;-70
2022/06/24 09:46:41;;;;;;;8.68;2.70;;;22.10;99.90;;;;;;5000409;28;20061;-70
2022/06/24 09:49:15;;;;;;;13.32;4.25;;;22.10;99.90;;;;;;5000409;28;20061;-71
2022/06/24 09:51:44;;;;;;;5.95;2.65;;;22.10;99.90;;;;;;5000282;28;20061;-71
2022/06/24 09:54:10;;;;;;;4.85;2.63;;;22.00;99.90;;;;;;4984283;28;20038;-70
2022/06/24 09:56:38;;;;;;;7.90;2.55;;;22.10;99.90;;;;;;5000488;28;20480;-71
2022/06/24 10:01:49;;;;;;;6.22;2.60;;;21.90;99.90;;;;;;5017421;28;20049;-70
2022/06/24 10:04:20;;;;;;;5.13;2.25;;;22.00;99.90;;;;;;5016052;28;20073;-71
2022/06/24 10:06:48;;;;;;;4.40;2.83;;;21.80;99.90;;;;;;4999909;28;20045;-71
2022/06/24 10:09:14;;;;;;;9.07;2.63;;;21.60;99.90;;;;;;5020202;28;20037;-70
2022/06/24 10:11:44;;;;;;;5.43;2.65;;;21.60;99.90;;;;;;4999789;28;20120;-69
2022/06/24 10:14:12;;;;;;;4.03;2.55;;;21.60;99.90;;;;;;4999554;28;20058;-69
2022/06/24 10:16:39;;;;;;;6.10;3.20;;;21.50;99.90;;;;;;4999574;28;20053;-69
2022/06/24 10:19:06;;;;;;;8.95;2.30;;;21.40;99.90;;;;;;5014122;28;20044;-69
2022/06/24 10:21:32;;;;;;;4.60;2.65;;;21.30;99.90;;;;;;5015751;28;20046;-69
2022/06/24 10:23:57;;;;;;;4.93;2.80;;;21.20;99.90;;;;;;4994515;28;20517;-69
2022/06/24 10:26:32;;;;;;;7.85;2.80;;;21.00;99.90;;;;;;4989048;28;20054;-70
2022/06/24 10:29:03;;;;;;;5.88;3.22;;;20.90;99.90;;;;;;4999244;28;20053;-68
2022/06/24 10:31:54;;;;;;;5.55;2.85;;;20.70;99.90;;;;;;4999461;28;20057;-69
2022/06/24 10:34:22;;;;;;;5.70;2.70;;;20.50;99.90;;;;;;4999141;28;20068;-68
2022/06/24 10:36:52;;;;;;;5.40;3.00;;;20.40;99.90;;;;;;5016842;28;20041;-69
2022/06/24 10:39:20;;;;;;;5.15;2.72;;;20.30;99.90;;;;;;4999312;28;20041;-69
2022/06/24 10:41:46;;;;;;;5.95;3.53;;;20.30;99.90;;;;;;4999506;28;20100;-69
2022/06/24 10:44:29;;;;;;;7.07;3.38;;;20.20;99.90;;;;;;4998566;28;20045;-70
2022/06/24 10:47:14;;;;;;;6.55;2.90;;;20.10;99.90;;;;;;5016529;28;20038;-70
2022/06/24 10:49:51;;;;;;;4.00;2.30;;;20.00;99.90;;;;;;5015900;28;20076;-70
2022/06/24 10:52:32;;;;;;;3.35;2.13;;;20.00;99.90;;;;;;5016013;28;20491;-70
2022/06/24 10:55:28;;;;;;;5.43;2.38;;;19.80;99.90;;;;;;5016542;28;20037;-69
2022/06/24 10:57:55;;;;;;;4.13;2.40;;;19.90;99.90;;;;;;5005529;28;20053;-70
2022/06/24 11:00:39;;;;;;;3.55;2.17;;;19.80;99.90;;;;;;4998760;28;20383;-70
2022/06/24 11:03:05;;;;;;;3.17;1.60;;;19.80;99.90;;;;;;5016136;28;20053;-70
2022/06/24 11:05:32;;;;;;;3.95;2.00;;;19.80;99.90;;;;;;4999220;28;20057;-71
2022/06/24 11:07:59;;;;;;;2.10;1.30;;;19.60;99.90;;;;;;4998471;28;20143;-71
2022/06/24 11:10:26;;;;;;;3.67;1.48;;;19.60;99.90;;;;;;5016314;28;20037;-71
2022/06/24 11:12:58;;;;;;;2.83;1.48;;;19.50;99.90;;;;;;4998335;28;20057;-71
2022/06/24 11:15:36;;;;;;;4.90;1.98;;;19.40;99.90;;;;;;4998921;28;20107;-71
2022/06/24 11:18:06;;;;;;;3.08;1.75;;;19.40;99.90;;;;;;4999004;28;20359;-70
2022/06/24 11:20:38;;;;;;;4.35;1.70;;;19.40;99.90;;;;;;4998290;28;20057;-70
2022/06/24 11:23:11;;;;;;;3.47;1.92;;;19.40;99.90;;;;;;4998419;28;20061;-70
2022/06/24 11:25:39;;;;;;;3.72;1.58;;;19.30;99.90;;;;;;4998690;28;20065;-72
2022/06/24 11:28:15;;;;;;;4.00;1.55;;;19.30;99.90;;;;;;5015394;28;20041;-71
2022/06/24 11:30:41;;;;;;;5.22;1.77;;;19.30;99.90;;;;;;5015628;28;20045;-70
2022/06/24 11:33:06;;;;;;;4.25;1.70;;;19.30;99.90;;;;;;5015862;28;20042;-70
2022/06/24 11:35:33;;;;;;;4.07;1.70;;;19.30;99.90;;;;;;4998812;28;20077;-70
2022/06/24 11:38:04;;;;;;;3.45;1.77;;;19.30;99.90;;;;;;4998006;28;20046;-71
2022/06/24 11:40:32;;;;;;;5.53;1.92;;;19.30;99.90;;;;;;4997545;28;20170;-70
2022/06/24 11:43:07;;;;;;;5.85;1.85;;;19.30;99.90;;;;;;5014636;28;20041;-70
2022/06/24 11:45:34;;;;;;;2.75;1.45;;;19.20;99.90;;;;;;5012657;28;20049;-70
2022/06/24 11:48:01;;;;;;;2.10;1.40;;;19.40;99.90;;;;;;4999402;28;20058;-71
2022/06/24 11:50:27;;;;;;;4.65;1.63;;;19.40;99.90;;;;;;4997701;28;20137;-69
2022/06/24 11:52:52;;;;;;;5.07;2.00;;;19.40;99.90;;;;;;4997769;28;20128;-70
2022/06/24 11:55:28;;;;;;;3.25;1.67;;;19.50;99.90;;;;;;4997797;28;20068;-70
2022/06/24 11:57:57;;;;;;;3.78;1.92;;;19.60;99.90;;;;;;5015691;28;20439;-70
2022/06/24 12:00:24;;;;;;;3.28;2.03;;;19.70;99.90;;;;;;4997599;28;20458;-69
2022/06/24 12:02:52;;;;;;;3.03;1.77;;;20.00;99.90;;;;;;4998231;28;20122;-70
2022/06/24 12:05:20;;;;;;;3.97;2.10;;;20.10;99.90;;;;;;4997550;28;20081;-70
2022/06/24 12:07:47;;;;;;;5.18;2.08;;;20.30;99.90;;;;;;4997712;28;20053;-69
2022/06/24 12:10:13;;;;;;;2.88;1.75;;;20.40;99.90;;;;;;4997567;28;20346;-69
2022/06/24 12:13:00;;;;;;;3.08;1.67;;;20.40;99.90;;;;;;5014963;28;20042;-69
2022/06/24 12:15:46;;;;;;;4.10;2.05;;;20.50;99.90;;;;;;4997437;28;20077;-69
2022/06/24 12:18:16;;;;;;;3.60;2.20;;;20.60;99.90;;;;;;4986926;28;20054;-69
2022/06/24 12:20:41;;;;;;;3.92;2.22;;;20.50;99.90;;;;;;4997773;28;20054;-69
2022/06/24 12:23:21;;;;;;;2.92;1.92;;;20.50;99.90;;;;;;4997566;28;20343;-69
2022/06/24 12:25:48;;;;;;;4.97;2.15;;;20.50;99.90;;;;;;5014468;28;20050;-69
2022/06/24 12:28:25;;;;;;;4.07;2.00;;;20.50;99.90;;;;;;4997511;28;20065;-69
2022/06/24 12:31:05;;;;;;;6.28;2.42;;;20.60;99.90;;;;;;4998129;28;20401;-69
2022/06/24 12:33:36;;;;;;;4.47;2.15;;;20.70;99.90;;;;;;5014649;28;20052;-69
2022/06/24 12:36:13;;;;;;;3.90;2.20;;;20.80;99.90;;;;;;5014910;28;20046;-71
2022/06/24 12:38:57;;;;;;;4.70;2.60;;;21.00;99.90;;;;;;5014277;28;20037;-72
2022/06/24 12:41:23;;;;;;;3.55;2.40;;;21.10;99.90;;;;;;5012782;28;20096;-71
2022/06/24 12:44:01;;;;;;;3.72;1.98;;;21.30;99.90;;;;;;5014588;28;20041;-69
2022/06/24 12:46:36;;;;;;;3.65;2.15;;;21.70;99.90;;;;;;5005890;28;20060;-69
2022/06/24 12:51:56;;;;;;;5.43;2.35;;;22.20;99.90;;;;;;5018708;28;20050;-69
2022/06/24 12:54:22;;;;;;;4.20;2.13;;;22.50;99.90;;;;;;5000690;28;20343;-69
2022/06/24 12:56:47;;;;;;;6.93;3.30;;;22.60;99.90;;;;;;5018533;28;20085;-69
2022/06/24 12:59:13;;;;;;;4.00;2.55;;;22.80;99.90;;;;;;5018573;28;20100;-69
2022/06/24 13:01:44;;;;;;;5.45;2.50;;;22.90;99.90;;;;;;5000965;28;20411;-69
2022/06/24 13:04:11;;;;;;;5.97;2.90;;;22.90;99.90;;;;;;5001224;28;20089;-68
2022/06/24 13:06:37;;;;;;;5.63;2.72;;;22.90;99.90;;;;;;5018609;28;20370;-69